createdAt,value
2022-12-17T00:02:33.929Z,101692.84
2022-12-17T00:05:19.027Z,101698.69
2022-12-17T00:08:18.317Z,101699.69
2022-12-17T00:11:04.427Z,101692.91
2022-12-17T00:13:50.708Z,101681.28
2022-12-17T00:16:36.677Z,101685.66
2022-12-17T00:19:21.710Z,101690.88
2022-12-17T00:22:06.665Z,101682.53
2022-12-17T00:24:52.168Z,101689.13
2022-12-17T00:27:37.342Z,101697.94
2022-12-17T00:30:24.500Z,101709.00
2022-12-17T00:33:09.676Z,101721.44
2022-12-17T00:35:55.375Z,101722.31
2022-12-17T00:38:41.138Z,101720.78
2022-12-17T00:41:26.290Z,101723.56
2022-12-17T00:44:11.450Z,101727.69
2022-12-17T00:46:57.922Z,101729.66
2022-12-17T00:49:42.950Z,101742.94
2022-12-17T00:52:27.873Z,101729.75
2022-12-17T00:55:12.692Z,101734.09
2022-12-17T00:57:57.530Z,101739.91
2022-12-17T01:00:42.968Z,101746.88
2022-12-17T01:03:31.167Z,101752.47
2022-12-17T01:06:19.372Z,101761.66
2022-12-17T01:09:04.263Z,101767.78
2022-12-17T01:11:49.582Z,101768.50
2022-12-17T01:14:31.150Z,101776.06
2022-12-17T01:17:15.827Z,101782.25
2022-12-17T01:20:02.657Z,101777.00
2022-12-17T01:22:47.992Z,101782.31
2022-12-17T01:25:33.451Z,101781.41
2022-12-17T01:28:18.399Z,101782.41
2022-12-17T01:31:03.257Z,101782.41
2022-12-17T01:33:48.179Z,101787.63
2022-12-17T01:36:34.767Z,101782.06
2022-12-17T01:39:20.111Z,101782.59
2022-12-17T01:42:05.364Z,101790.88
2022-12-17T01:45:02.885Z,101788.97
2022-12-17T01:47:52.414Z,101793.53
2022-12-17T01:50:39.359Z,101795.88
2022-12-17T01:53:27.056Z,101802.13
2022-12-17T01:56:12.456Z,101798.28
2022-12-17T01:58:58.222Z,101797.56
2022-12-17T02:01:43.639Z,101790.81
2022-12-17T02:04:29.689Z,101801.41
2022-12-17T02:07:28.574Z,101802.53
2022-12-17T02:10:27.544Z,101804.91
2022-12-17T02:13:18.902Z,101803.53
2022-12-17T02:16:08.710Z,101798.78
2022-12-17T02:18:58.846Z,101801.31
2022-12-17T02:21:46.265Z,101802.06
2022-12-17T02:24:39.722Z,101800.47
2022-12-17T02:27:27.898Z,101803.75
2022-12-17T02:30:16.213Z,101807.09
2022-12-17T02:33:04.501Z,101806.78
2022-12-17T02:35:53.192Z,101801.94
2022-12-17T02:38:36.041Z,101803.31
2022-12-17T02:41:23.311Z,101800.44
2022-12-17T02:44:11.896Z,101806.13
2022-12-17T02:46:59.755Z,101807.25
2022-12-17T02:49:45.645Z,101814.47
2022-12-17T02:52:34.883Z,101812.75
2022-12-17T02:55:20.395Z,101813.84
2022-12-17T02:58:05.177Z,101812.50
2022-12-17T03:00:51.817Z,101817.56
2022-12-17T03:03:51.648Z,101819.03
2022-12-17T03:06:37.346Z,101832.44
2022-12-17T03:09:22.876Z,101829.69
2022-12-17T03:12:08.715Z,101831.81
2022-12-17T03:14:53.581Z,101827.94
2022-12-17T03:17:40.265Z,101830.63
2022-12-17T03:20:26.539Z,101836.41
2022-12-17T03:23:11.347Z,101839.31
2022-12-17T03:25:56.533Z,101843.09
2022-12-17T03:28:41.867Z,101846.44
2022-12-17T03:31:41.234Z,101844.19
2022-12-17T03:34:27.637Z,101853.50
2022-12-17T03:37:12.593Z,101842.47
2022-12-17T03:39:57.934Z,101852.31
2022-12-17T03:42:43.345Z,101857.88
2022-12-17T03:45:29.111Z,101854.78
2022-12-17T03:48:23.473Z,101861.31
2022-12-17T03:51:09.941Z,101870.13
2022-12-17T03:53:54.734Z,101869.59
2022-12-17T03:56:40.184Z,101871.25
2022-12-17T03:59:24.965Z,101878.25
2022-12-17T04:02:24.931Z,101870.09
2022-12-17T04:05:13.816Z,101875.28
2022-12-17T04:08:03.338Z,101890.19
2022-12-17T04:10:48.715Z,101886.06
2022-12-17T04:13:38.843Z,101884.97
2022-12-17T04:16:26.103Z,101881.44
2022-12-17T04:19:11.542Z,101888.50
2022-12-17T04:21:56.248Z,101893.44
2022-12-17T04:24:42.807Z,101897.28
2022-12-17T04:27:27.701Z,101897.06
2022-12-17T04:30:12.495Z,101907.44
2022-12-17T04:33:06.392Z,101915.44
2022-12-17T04:35:51.292Z,101908.78
2022-12-17T04:38:36.023Z,101911.38
2022-12-17T04:41:22.587Z,101910.44
2022-12-17T04:44:07.403Z,101911.41
2022-12-17T04:46:52.102Z,101906.41
2022-12-17T04:49:36.973Z,101914.69
2022-12-17T04:52:22.760Z,101908.06
2022-12-17T04:55:09.879Z,101919.69
2022-12-17T04:57:56.433Z,101919.09
2022-12-17T05:00:41.590Z,101922.69
2022-12-17T05:03:29.938Z,101919.53
2022-12-17T05:06:15.631Z,101910.03
2022-12-17T05:09:00.940Z,101915.34
2022-12-17T05:11:46.447Z,101921.03
2022-12-17T05:14:32.887Z,101916.97
2022-12-17T05:17:29.136Z,101923.41
2022-12-17T05:20:14.267Z,101929.25
2022-12-17T05:22:59.525Z,101929.53
2022-12-17T05:25:44.196Z,101937.06
2022-12-17T05:28:29.047Z,101932.09
2022-12-17T05:31:15.722Z,101940.81
2022-12-17T05:34:00.650Z,101936.47
2022-12-17T05:36:45.585Z,101947.91
2022-12-17T05:39:30.833Z,101949.53
2022-12-17T05:42:15.728Z,101956.78
2022-12-17T05:45:00.436Z,101962.75
2022-12-17T05:47:46.938Z,101970.09
2022-12-17T05:50:32.880Z,101981.28
2022-12-17T05:53:20.671Z,101977.56
2022-12-17T05:56:08.310Z,101985.88
2022-12-17T05:58:53.226Z,101984.50
2022-12-17T06:01:37.961Z,101991.16
2022-12-17T06:04:24.356Z,102000.06
2022-12-17T06:07:09.030Z,101995.78
2022-12-17T06:09:53.808Z,101995.03
2022-12-17T06:12:38.764Z,101994.44
2022-12-17T06:15:24.594Z,102011.56
2022-12-17T06:18:16.647Z,102003.81
2022-12-17T06:21:03.245Z,102008.41
2022-12-17T06:23:47.993Z,102015.63
2022-12-17T06:26:33.426Z,102015.03
2022-12-17T06:29:18.173Z,102016.81
2022-12-17T06:32:02.875Z,102019.38
2022-12-17T06:34:47.768Z,102014.59
2022-12-17T06:37:34.322Z,102019.97
2022-12-17T06:40:19.245Z,102019.88
2022-12-17T06:43:11.118Z,102018.41
2022-12-17T06:45:55.906Z,102014.88
2022-12-17T06:48:41.297Z,102024.88
2022-12-17T06:51:26.025Z,102032.78
2022-12-17T06:54:12.337Z,102039.19
2022-12-17T06:56:57.092Z,102050.63
2022-12-17T06:59:41.868Z,102055.25
2022-12-17T07:02:28.868Z,102058.91
2022-12-17T07:05:14.166Z,102064.31
2022-12-17T07:07:58.922Z,102073.75
2022-12-17T07:10:45.489Z,102076.53
2022-12-17T07:13:30.170Z,102079.34
2022-12-17T07:16:14.997Z,102079.47
2022-12-17T07:19:00.118Z,102093.44
2022-12-17T07:21:45.480Z,102091.72
2022-12-17T07:24:30.737Z,102093.22
2022-12-17T07:27:17.387Z,102091.91
2022-12-17T07:30:02.243Z,102094.94
2022-12-17T07:32:46.987Z,102094.78
2022-12-17T07:35:32.283Z,102102.31
2022-12-17T07:38:18.050Z,102087.75
2022-12-17T07:41:03.279Z,102100.75
2022-12-17T07:43:53.247Z,102104.84
2022-12-17T07:46:38.648Z,102116.00
2022-12-17T07:49:25.973Z,102119.03
2022-12-17T07:52:11.599Z,102129.63
2022-12-17T07:54:56.365Z,102134.16
2022-12-17T07:57:41.124Z,102145.59
2022-12-17T08:00:29.232Z,102143.50
2022-12-17T08:03:16.035Z,102146.25
2022-12-17T08:06:00.899Z,102157.28
2022-12-17T08:08:45.503Z,102157.56
2022-12-17T08:11:29.606Z,102161.53
2022-12-17T08:14:14.181Z,102157.00
2022-12-17T08:17:00.786Z,102153.75
2022-12-17T08:19:46.047Z,102156.91
2022-12-17T08:22:31.341Z,102165.84
2022-12-17T08:25:16.204Z,102159.25
2022-12-17T08:28:01.094Z,102166.69
2022-12-17T08:30:49.217Z,102171.25
2022-12-17T08:33:36.170Z,102166.28
2022-12-17T08:36:21.576Z,102161.97
2022-12-17T08:39:06.743Z,102173.88
2022-12-17T08:41:54.954Z,102181.22
2022-12-17T08:44:41.402Z,102174.22
2022-12-17T08:47:26.740Z,102172.88
2022-12-17T08:50:13.382Z,102174.97
2022-12-17T08:52:58.111Z,102174.38
2022-12-17T08:55:42.870Z,102177.28
2022-12-17T08:58:27.602Z,102181.34
2022-12-17T09:01:13.087Z,102174.44
2022-12-17T09:03:58.083Z,102172.97
2022-12-17T09:06:44.682Z,102189.66
2022-12-17T09:09:30.113Z,102206.03
2022-12-17T09:12:11.544Z,102205.28
2022-12-17T09:14:56.481Z,102198.94
2022-12-17T09:17:41.719Z,102197.00
2022-12-17T09:20:29.437Z,102201.69
2022-12-17T09:23:16.893Z,102185.56
2022-12-17T09:26:03.874Z,102188.16
2022-12-17T09:28:48.731Z,102180.63
2022-12-17T09:31:37.282Z,102171.00
2022-12-17T09:34:22.578Z,102186.09
2022-12-17T09:37:07.405Z,102189.22
2022-12-17T09:39:54.001Z,102202.00
2022-12-17T09:42:51.800Z,102203.81
2022-12-17T09:45:44.080Z,102213.69
2022-12-17T09:48:39.637Z,102218.88
2022-12-17T09:51:32.041Z,102218.47
2022-12-17T09:54:17.507Z,102216.16
2022-12-17T09:57:04.008Z,102209.28
2022-12-17T09:59:53.194Z,102223.88
2022-12-17T10:02:42.004Z,102224.13
2022-12-17T10:05:45.482Z,102224.44
2022-12-17T10:08:33.934Z,102233.44
2022-12-17T10:11:31.234Z,102238.75
2022-12-17T10:14:22.546Z,102256.50
2022-12-17T10:17:11.887Z,102255.00
2022-12-17T10:20:00.265Z,102241.09
2022-12-17T10:22:45.644Z,102251.00
2022-12-17T10:25:35.146Z,102247.09
2022-12-17T10:28:23.437Z,102244.41
2022-12-17T10:31:09.978Z,102238.28
2022-12-17T10:33:57.742Z,102241.25
2022-12-17T10:36:44.927Z,102240.28
2022-12-17T10:39:35.844Z,102252.44
2022-12-17T10:42:21.553Z,102256.31
2022-12-17T10:45:06.455Z,102268.56
2022-12-17T10:47:52.744Z,102258.19
2022-12-17T10:50:39.426Z,102254.50
2022-12-17T10:53:36.601Z,102259.88
2022-12-17T10:56:22.683Z,102259.81
2022-12-17T10:59:09.981Z,102261.31
2022-12-17T11:01:56.150Z,102262.53
2022-12-17T11:04:45.396Z,102270.53
2022-12-17T11:07:36.084Z,102266.19
2022-12-17T11:10:23.544Z,102269.31
2022-12-17T11:13:13.439Z,102274.38
2022-12-17T11:16:02.439Z,102274.53
2022-12-17T11:18:51.540Z,102282.81
2022-12-17T11:21:43.421Z,102280.75
2022-12-17T11:24:33.146Z,102278.84
2022-12-17T11:27:26.398Z,102280.69
2022-12-17T11:30:12.173Z,102280.75
2022-12-17T11:33:13.262Z,102289.19
2022-12-17T11:36:10.899Z,102293.97
2022-12-17T11:39:00.048Z,102293.06
2022-12-17T11:41:54.591Z,102296.50
2022-12-17T11:44:56.680Z,102295.78
2022-12-17T11:47:49.114Z,102293.31
2022-12-17T11:50:45.594Z,102296.19
2022-12-17T11:53:53.024Z,102298.06
2022-12-17T11:56:44.756Z,102303.66
2022-12-17T11:59:38.709Z,102307.91
2022-12-17T12:02:40.880Z,102314.28
2022-12-17T12:05:42.368Z,102307.13
2022-12-17T12:08:38.481Z,102315.47
2022-12-17T12:11:31.952Z,102305.66
2022-12-17T12:14:25.209Z,102301.09
2022-12-17T12:17:31.728Z,102307.22
2022-12-17T12:20:23.385Z,102300.97
2022-12-17T12:23:18.376Z,102312.56
2022-12-17T12:26:17.268Z,102317.38
2022-12-17T12:29:09.108Z,102309.72
2022-12-17T12:32:00.422Z,102324.34
2022-12-17T12:34:49.606Z,102327.44
2022-12-17T12:37:38.057Z,102331.63
2022-12-17T12:40:32.479Z,102336.53
2022-12-17T12:43:26.582Z,102330.66
2022-12-17T12:46:17.246Z,102341.53
2022-12-17T12:49:11.229Z,102351.06
2022-12-17T12:51:56.962Z,102350.16
2022-12-17T12:54:45.984Z,102351.72
2022-12-17T12:57:49.612Z,102343.44
2022-12-17T13:00:50.770Z,102346.84
2022-12-17T13:03:43.032Z,102350.59
2022-12-17T13:06:13.247Z,102366.31
2022-12-17T13:08:41.576Z,102363.78
2022-12-17T13:11:28.243Z,102359.38
2022-12-17T13:14:01.707Z,102352.00
2022-12-17T13:16:39.083Z,102350.84
2022-12-17T13:19:20.873Z,102351.19
2022-12-17T13:21:49.772Z,102348.78
2022-12-17T13:24:25.806Z,102351.00
2022-12-17T13:26:53.429Z,102354.84
2022-12-17T13:29:28.177Z,102368.13
2022-12-17T13:32:04.870Z,102369.25
2022-12-17T13:34:45.711Z,102372.97
2022-12-17T13:37:25.689Z,102385.53
2022-12-17T13:40:02.632Z,102385.16
2022-12-17T13:42:32.486Z,102382.25
2022-12-17T13:45:00.749Z,102396.31
2022-12-17T13:47:30.599Z,102389.66
2022-12-17T13:50:32.334Z,102386.72
2022-12-17T13:52:48.812Z,102385.94
2022-12-17T13:55:21.115Z,102387.97
2022-12-17T13:57:49.838Z,102395.34
2022-12-17T14:00:23.181Z,102397.44
2022-12-17T14:02:51.008Z,102403.75
2022-12-17T14:05:28.177Z,102410.47
2022-12-17T14:07:59.447Z,102413.84
2022-12-17T14:10:27.167Z,102416.88
2022-12-17T14:13:03.870Z,102409.81
2022-12-17T14:15:32.090Z,102420.84
2022-12-17T14:18:00.308Z,102432.31
2022-12-17T14:20:31.163Z,102428.28
2022-12-17T14:23:04.437Z,102428.78
2022-12-17T14:25:36.082Z,102433.84
2022-12-17T14:28:05.458Z,102430.47
2022-12-17T14:30:46.236Z,102427.69
2022-12-17T14:33:27.719Z,102432.81
2022-12-17T14:36:00.096Z,102433.28
2022-12-17T14:38:48.212Z,102434.63
2022-12-17T14:41:34.217Z,102432.84
2022-12-17T14:44:03.635Z,102429.31
2022-12-17T14:46:32.641Z,102443.84
2022-12-17T14:49:02.592Z,102440.94
2022-12-17T14:51:33.246Z,102455.38
2022-12-17T14:54:19.516Z,102450.59
2022-12-17T14:56:49.388Z,102457.13
2022-12-17T14:59:33.445Z,102461.22
2022-12-17T15:02:04.211Z,102456.78
2022-12-17T15:04:33.666Z,102450.34
2022-12-17T15:07:01.099Z,102456.38
2022-12-17T15:09:29.951Z,102453.81
2022-12-17T15:11:57.355Z,102456.16
2022-12-17T15:14:24.921Z,102459.66
2022-12-17T15:16:52.806Z,102458.38
2022-12-17T15:19:20.214Z,102462.19
2022-12-17T15:21:47.806Z,102468.94
2022-12-17T15:24:19.364Z,102469.56
2022-12-17T15:26:48.809Z,102465.00
2022-12-17T15:29:16.192Z,102479.34
2022-12-17T15:31:43.641Z,102488.81
2022-12-17T15:34:11.918Z,102490.03
2022-12-17T15:36:39.323Z,102492.47
2022-12-17T15:39:07.166Z,102495.81
2022-12-17T15:41:51.929Z,102495.84
2022-12-17T15:44:20.718Z,102495.09
2022-12-17T15:46:48.232Z,102505.69
2022-12-17T15:49:15.688Z,102498.34
2022-12-17T15:51:43.156Z,102510.78
2022-12-17T15:54:10.565Z,102508.34
2022-12-17T15:56:38.140Z,102503.34
2022-12-17T15:59:05.520Z,102498.88
2022-12-17T16:01:35.271Z,102504.41
2022-12-17T16:04:02.844Z,102515.25
2022-12-17T16:06:30.389Z,102504.22
2022-12-17T16:08:57.806Z,102511.91
2022-12-17T16:11:25.223Z,102502.97
2022-12-17T16:13:55.213Z,102505.00
2022-12-17T16:16:23.035Z,102506.41
2022-12-17T16:18:52.792Z,102499.19
2022-12-17T16:21:20.236Z,102501.28
2022-12-17T16:23:47.674Z,102507.22
2022-12-17T16:26:15.135Z,102505.94
2022-12-17T16:28:42.544Z,102510.94
2022-12-17T16:31:12.671Z,102507.81
2022-12-17T16:33:42.893Z,102511.56
2022-12-17T16:36:13.715Z,102519.28
2022-12-17T16:38:45.180Z,102514.00
2022-12-17T16:41:13.567Z,102517.34
2022-12-17T16:43:41.283Z,102517.75
2022-12-17T16:46:26.213Z,102522.88
2022-12-17T16:48:54.695Z,102531.53
2022-12-17T16:51:28.922Z,102531.84
2022-12-17T16:53:57.404Z,102529.56
2022-12-17T16:56:27.237Z,102529.56
2022-12-17T16:58:54.988Z,102524.53
2022-12-17T17:01:24.011Z,102539.22
2022-12-17T17:03:51.657Z,102532.97
2022-12-17T17:06:20.104Z,102534.19
2022-12-17T17:08:49.003Z,102534.28
2022-12-17T17:11:19.239Z,102540.88
2022-12-17T17:13:46.643Z,102543.41
2022-12-17T17:16:14.133Z,102543.94
2022-12-17T17:18:42.182Z,102540.06
2022-12-17T17:21:14.820Z,102542.06
2022-12-17T17:23:42.798Z,102538.75
2022-12-17T17:26:11.633Z,102544.06
2022-12-17T17:28:39.791Z,102550.88
2022-12-17T17:31:09.926Z,102544.13
2022-12-17T17:33:39.562Z,102552.66
2022-12-17T17:36:08.801Z,102557.69
2022-12-17T17:38:38.664Z,102565.16
2022-12-17T17:41:07.264Z,102561.22
2022-12-17T17:43:36.119Z,102564.19
2022-12-17T17:46:07.818Z,102568.34
2022-12-17T17:48:36.348Z,102570.44
2022-12-17T17:51:07.288Z,102573.91
2022-12-17T17:53:34.788Z,102567.63
2022-12-17T17:56:07.216Z,102574.63
2022-12-17T17:58:36.329Z,102579.97
2022-12-17T18:01:09.468Z,102569.22
2022-12-17T18:03:37.339Z,102578.59
2022-12-17T18:06:06.759Z,102582.28
2022-12-17T18:08:35.513Z,102576.84
2022-12-17T18:11:05.903Z,102578.19
2022-12-17T18:13:51.022Z,102581.22
2022-12-17T18:16:20.731Z,102587.53
2022-12-17T18:18:48.680Z,102580.06
2022-12-17T18:21:18.010Z,102583.81
2022-12-17T18:23:46.353Z,102583.69
2022-12-17T18:26:15.957Z,102589.78
2022-12-17T18:28:44.363Z,102587.59
2022-12-17T18:31:13.969Z,102589.59
2022-12-17T18:33:45.120Z,102592.03
2022-12-17T18:36:15.218Z,102591.38
2022-12-17T18:38:43.577Z,102598.16
2022-12-17T18:41:30.921Z,102600.44
2022-12-17T18:43:59.879Z,102600.47
2022-12-17T18:46:27.525Z,102601.63
2022-12-17T18:48:57.484Z,102600.53
2022-12-17T18:51:24.954Z,102606.56
2022-12-17T18:53:53.365Z,102607.03
2022-12-17T18:56:44.747Z,102615.19
2022-12-17T18:59:08.181Z,102617.75
2022-12-17T19:01:37.612Z,102621.31
2022-12-17T19:04:08.983Z,102619.50
2022-12-17T19:06:37.813Z,102626.38
2022-12-17T19:09:07.136Z,102629.78
2022-12-17T19:11:41.932Z,102636.50
2022-12-17T19:14:10.964Z,102635.69
2022-12-17T19:16:38.646Z,102634.19
2022-12-17T19:19:07.406Z,102636.72
2022-12-17T19:21:35.342Z,102639.78
2022-12-17T19:24:04.620Z,102652.88
2022-12-17T19:26:32.826Z,102640.22
2022-12-17T19:29:01.928Z,102641.56
2022-12-17T19:31:32.058Z,102641.03
2022-12-17T19:34:01.368Z,102646.38
2022-12-17T19:36:32.089Z,102665.13
2022-12-17T19:39:00.918Z,102658.81
2022-12-17T19:41:29.589Z,102654.50
2022-12-17T19:43:58.933Z,102659.31
2022-12-17T19:46:26.706Z,102656.41
2022-12-17T19:48:57.366Z,102671.84
2022-12-17T19:51:27.191Z,102671.09
2022-12-17T19:53:56.482Z,102674.41
2022-12-17T19:56:25.958Z,102678.84
2022-12-17T19:58:56.010Z,102672.88
2022-12-17T20:01:25.763Z,102672.50
2022-12-17T20:03:54.109Z,102669.97
2022-12-17T20:06:23.856Z,102687.72
2022-12-17T20:08:51.952Z,102675.69
2022-12-17T20:11:36.405Z,102676.53
2022-12-17T20:14:07.804Z,102687.59
2022-12-17T20:16:37.419Z,102693.81
2022-12-17T20:19:06.738Z,102691.72
2022-12-17T20:21:34.332Z,102699.38
2022-12-17T20:24:01.839Z,102694.81
2022-12-17T20:26:30.641Z,102699.06
2022-12-17T20:28:59.065Z,102694.06
2022-12-17T20:31:26.666Z,102697.88
2022-12-17T20:33:54.117Z,102703.94
2022-12-17T20:36:23.319Z,102701.34
2022-12-17T20:38:50.982Z,102707.97
2022-12-17T20:41:20.794Z,102702.44
2022-12-17T20:43:50.635Z,102718.13
2022-12-17T20:46:20.312Z,102707.28
2022-12-17T20:48:48.242Z,102724.19
2022-12-17T20:51:18.069Z,102720.03
2022-12-17T20:53:47.283Z,102714.25
2022-12-17T20:56:17.032Z,102714.97
2022-12-17T20:58:44.911Z,102720.09
2022-12-17T21:01:16.023Z,102727.59
2022-12-17T21:03:44.104Z,102718.47
2022-12-17T21:06:13.783Z,102711.03
2022-12-17T21:08:49.128Z,102716.94
2022-12-17T21:11:18.150Z,102729.59
2022-12-17T21:13:46.043Z,102719.91
2022-12-17T21:16:16.565Z,102722.53
2022-12-17T21:18:44.346Z,102719.06
2022-12-17T21:21:16.139Z,102719.94
2022-12-17T21:23:44.038Z,102727.00
2022-12-17T21:26:14.352Z,102725.38
2022-12-17T21:28:45.046Z,102724.59
2022-12-17T21:31:19.072Z,102731.03
2022-12-17T21:33:47.990Z,102750.09
2022-12-17T21:36:16.935Z,102753.22
2022-12-17T21:38:45.624Z,102753.84
2022-12-17T21:41:16.155Z,102758.25
2022-12-17T21:43:44.083Z,102758.94
2022-12-17T21:46:17.340Z,102762.28
2022-12-17T21:48:46.542Z,102749.50
2022-12-17T21:51:16.759Z,102752.72
2022-12-17T21:53:44.661Z,102758.19
2022-12-17T21:56:13.967Z,102761.44
2022-12-17T21:58:42.380Z,102757.88
2022-12-17T22:01:16.367Z,102765.63
2022-12-17T22:03:51.337Z,102759.38
2022-12-17T22:06:22.972Z,102758.47
2022-12-17T22:08:55.759Z,102761.91
2022-12-17T22:11:28.534Z,102783.63
2022-12-17T22:14:07.263Z,102780.94
2022-12-17T22:16:39.791Z,102784.16
2022-12-17T22:19:10.510Z,102780.84
2022-12-17T22:21:40.567Z,102787.66
2022-12-17T22:24:08.718Z,102791.97
2022-12-17T22:26:36.215Z,102790.84
2022-12-17T22:29:04.074Z,102800.94
2022-12-17T22:31:49.370Z,102785.28
2022-12-17T22:35:00.694Z,102794.50
2022-12-17T22:39:21.736Z,102788.84
2022-12-17T22:43:46.248Z,102793.91
2022-12-17T22:44:46.140Z,102790.84
2022-12-17T22:45:48.882Z,102804.34
2022-12-17T22:48:16.398Z,102808.38
2022-12-17T22:50:50.115Z,102815.56
2022-12-17T22:53:32.869Z,102812.91
2022-12-17T22:56:14.672Z,102822.69
2022-12-17T22:58:53.388Z,102827.38
2022-12-17T23:01:23.346Z,102830.38
2022-12-17T23:03:54.778Z,102832.22
2022-12-17T23:06:24.205Z,102836.69
2022-12-17T23:08:51.895Z,102835.91
2022-12-17T23:11:22.500Z,102833.03
2022-12-17T23:13:50.190Z,102833.28
2022-12-17T23:16:18.532Z,102828.41
2022-12-17T23:18:47.866Z,102840.56
2022-12-17T23:21:17.405Z,102830.59
2022-12-17T23:23:46.591Z,102831.69
2022-12-17T23:26:17.165Z,102839.94
2022-12-17T23:28:45.931Z,102841.03
2022-12-17T23:31:16.055Z,102834.34
2022-12-17T23:33:43.815Z,102835.91
2022-12-17T23:36:13.467Z,102834.75
2022-12-17T23:38:42.152Z,102836.84
2022-12-17T23:41:12.926Z,102838.44
2022-12-17T23:43:40.874Z,102832.47
2022-12-17T23:46:10.015Z,102831.31
2022-12-17T23:48:44.848Z,102830.75
2022-12-17T23:51:14.663Z,102836.03
2022-12-17T23:53:43.470Z,102839.19
2022-12-17T23:56:14.983Z,102840.41
2022-12-17T23:58:44.170Z,102842.72
